sensor_id;sensor_type;location;lat;lon;timestamp;P1;durP1;ratioP1;P2;durP2;ratioP2
68910;SDS011;55953;51.650;-0.522;2024-01-16T00:00:11;10.20;;;4.40;;
68910;SDS011;55953;51.650;-0.522;2024-01-16T00:03:00;9.50;;;4.60;;
68910;SDS011;55953;51.650;-0.522;2024-01-16T00:05:28;8.10;;;4.10;;
68910;SDS011;55953;51.650;-0.522;2024-01-16T00:07:55;10.10;;;4.30;;
68910;SDS011;55953;51.650;-0.522;2024-01-16T00:10:27;8.20;;;4.20;;
68910;SDS011;55953;51.650;-0.522;2024-01-16T00:12:55;9.40;;;4.00;;
68910;SDS011;55953;51.650;-0.522;2024-01-16T00:15:23;7.50;;;3.80;;
68910;SDS011;55953;51.650;-0.522;2024-01-16T00:17:51;10.70;;;4.30;;
68910;SDS011;55953;51.650;-0.522;2024-01-16T00:20:19;7.50;;;3.80;;
68910;SDS011;55953;51.650;-0.522;2024-01-16T00:22:47;9.30;;;4.00;;
68910;SDS011;55953;51.650;-0.522;2024-01-16T00:25:15;9.30;;;4.00;;
68910;SDS011;55953;51.650;-0.522;2024-01-16T00:27:43;7.20;;;3.80;;
68910;SDS011;55953;51.650;-0.522;2024-01-16T00:30:11;7.50;;;4.00;;
68910;SDS011;55953;51.650;-0.522;2024-01-16T00:32:39;10.00;;;3.70;;
68910;SDS011;55953;51.650;-0.522;2024-01-16T00:35:08;10.00;;;4.20;;
68910;SDS011;55953;51.650;-0.522;2024-01-16T00:37:37;8.30;;;3.80;;
68910;SDS011;55953;51.650;-0.522;2024-01-16T00:40:05;8.10;;;4.20;;
68910;SDS011;55953;51.650;-0.522;2024-01-16T00:42:36;7.10;;;3.50;;
68910;SDS011;55953;51.650;-0.522;2024-01-16T00:45:04;8.90;;;3.60;;
68910;SDS011;55953;51.650;-0.522;2024-01-16T00:47:32;7.90;;;3.60;;
68910;SDS011;55953;51.650;-0.522;2024-01-16T00:50:01;14.30;;;4.50;;
68910;SDS011;55953;51.650;-0.522;2024-01-16T00:52:30;10.30;;;4.90;;
68910;SDS011;55953;51.650;-0.522;2024-01-16T00:54:58;9.10;;;4.70;;
68910;SDS011;55953;51.650;-0.522;2024-01-16T00:57:25;21.50;;;6.90;;
68910;SDS011;55953;51.650;-0.522;2024-01-16T00:59:54;14.30;;;5.90;;
68910;SDS011;55953;51.650;-0.522;2024-01-16T01:02:22;11.60;;;5.60;;
68910;SDS011;55953;51.650;-0.522;2024-01-16T01:04:50;10.60;;;5.20;;
68910;SDS011;55953;51.650;-0.522;2024-01-16T01:07:18;10.70;;;4.90;;
68910;SDS011;55953;51.650;-0.522;2024-01-16T01:09:46;11.40;;;5.30;;
68910;SDS011;55953;51.650;-0.522;2024-01-16T01:12:14;14.50;;;4.50;;
68910;SDS011;55953;51.650;-0.522;2024-01-16T01:14:41;10.60;;;4.30;;
68910;SDS011;55953;51.650;-0.522;2024-01-16T01:17:09;9.50;;;4.40;;
68910;SDS011;55953;51.650;-0.522;2024-01-16T01:19:37;11.10;;;4.80;;
68910;SDS011;55953;51.650;-0.522;2024-01-16T01:22:06;7.60;;;4.10;;
68910;SDS011;55953;51.650;-0.522;2024-01-16T01:24:34;8.80;;;4.50;;
68910;SDS011;55953;51.650;-0.522;2024-01-16T01:27:02;8.60;;;3.70;;
68910;SDS011;55953;51.650;-0.522;2024-01-16T01:29:30;7.30;;;3.60;;
68910;SDS011;55953;51.650;-0.522;2024-01-16T01:31:58;8.20;;;4.10;;
68910;SDS011;55953;51.650;-0.522;2024-01-16T01:34:26;7.90;;;3.90;;
68910;SDS011;55953;51.650;-0.522;2024-01-16T01:36:54;10.90;;;4.70;;
68910;SDS011;55953;51.650;-0.522;2024-01-16T01:39:25;9.70;;;4.80;;
68910;SDS011;55953;51.650;-0.522;2024-01-16T01:41:54;8.90;;;5.10;;
68910;SDS011;55953;51.650;-0.522;2024-01-16T01:44:22;7.40;;;4.40;;
68910;SDS011;55953;51.650;-0.522;2024-01-16T01:46:56;11.50;;;4.60;;
68910;SDS011;55953;51.650;-0.522;2024-01-16T01:49:25;11.90;;;4.90;;
68910;SDS011;55953;51.650;-0.522;2024-01-16T01:51:54;9.40;;;4.80;;
68910;SDS011;55953;51.650;-0.522;2024-01-16T01:54:24;7.90;;;4.50;;
68910;SDS011;55953;51.650;-0.522;2024-01-16T01:56:54;6.80;;;4.00;;
68910;SDS011;55953;51.650;-0.522;2024-01-16T01:59:22;6.50;;;4.00;;
68910;SDS011;55953;51.650;-0.522;2024-01-16T02:01:52;8.60;;;3.60;;
68910;SDS011;55953;51.650;-0.522;2024-01-16T02:04:22;9.80;;;3.50;;
68910;SDS011;55953;51.650;-0.522;2024-01-16T02:06:50;6.40;;;3.40;;
68910;SDS011;55953;51.650;-0.522;2024-01-16T02:09:18;9.10;;;4.00;;
68910;SDS011;55953;51.650;-0.522;2024-01-16T02:11:46;7.80;;;3.30;;
68910;SDS011;55953;51.650;-0.522;2024-01-16T02:14:14;6.70;;;3.50;;
68910;SDS011;55953;51.650;-0.522;2024-01-16T02:16:42;10.50;;;3.70;;
68910;SDS011;55953;51.650;-0.522;2024-01-16T02:19:12;7.60;;;3.40;;
68910;SDS011;55953;51.650;-0.522;2024-01-16T02:21:47;7.10;;;3.30;;
68910;SDS011;55953;51.650;-0.522;2024-01-16T02:24:18;4.80;;;3.00;;
68910;SDS011;55953;51.650;-0.522;2024-01-16T02:26:47;7.30;;;3.60;;
68910;SDS011;55953;51.650;-0.522;2024-01-16T02:29:15;6.00;;;3.20;;
68910;SDS011;55953;51.650;-0.522;2024-01-16T02:31:44;7.10;;;3.00;;
68910;SDS011;55953;51.650;-0.522;2024-01-16T02:34:11;6.00;;;3.30;;
68910;SDS011;55953;51.650;-0.522;2024-01-16T02:36:41;6.90;;;3.30;;
68910;SDS011;55953;51.650;-0.522;2024-01-16T02:39:08;6.60;;;3.10;;
68910;SDS011;55953;51.650;-0.522;2024-01-16T02:41:37;5.90;;;3.20;;
68910;SDS011;55953;51.650;-0.522;2024-01-16T02:44:05;6.90;;;3.30;;
68910;SDS011;55953;51.650;-0.522;2024-01-16T02:46:33;13.40;;;4.10;;
68910;SDS011;55953;51.650;-0.522;2024-01-16T02:49:01;8.00;;;3.50;;
68910;SDS011;55953;51.650;-0.522;2024-01-16T02:51:29;9.60;;;3.50;;
68910;SDS011;55953;51.650;-0.522;2024-01-16T02:53:57;6.60;;;3.40;;
68910;SDS011;55953;51.650;-0.522;2024-01-16T02:56:25;6.60;;;3.60;;
68910;SDS011;55953;51.650;-0.522;2024-01-16T02:58:53;10.10;;;3.80;;
68910;SDS011;55953;51.650;-0.522;2024-01-16T03:01:21;4.90;;;3.30;;
68910;SDS011;55953;51.650;-0.522;2024-01-16T03:03:49;7.30;;;3.80;;
68910;SDS011;55953;51.650;-0.522;2024-01-16T03:06:22;6.80;;;3.90;;
68910;SDS011;55953;51.650;-0.522;2024-01-16T03:08:51;10.00;;;4.50;;
68910;SDS011;55953;51.650;-0.522;2024-01-16T03:11:20;9.00;;;4.30;;
68910;SDS011;55953;51.650;-0.522;2024-01-16T03:13:48;9.30;;;4.30;;
68910;SDS011;55953;51.650;-0.522;2024-01-16T03:16:17;7.30;;;4.30;;
68910;SDS011;55953;51.650;-0.522;2024-01-16T03:18:45;9.50;;;4.60;;
68910;SDS011;55953;51.650;-0.522;2024-01-16T03:21:13;9.20;;;4.10;;
68910;SDS011;55953;51.650;-0.522;2024-01-16T03:23:42;10.10;;;4.50;;
68910;SDS011;55953;51.650;-0.522;2024-01-16T03:26:13;9.10;;;3.80;;
68910;SDS011;55953;51.650;-0.522;2024-01-16T03:31:12;7.50;;;4.00;;
68910;SDS011;55953;51.650;-0.522;2024-01-16T03:33:41;6.90;;;3.80;;
68910;SDS011;55953;51.650;-0.522;2024-01-16T03:36:13;9.10;;;3.90;;
68910;SDS011;55953;51.650;-0.522;2024-01-16T03:38:42;7.00;;;3.50;;
68910;SDS011;55953;51.650;-0.522;2024-01-16T03:41:11;6.50;;;3.40;;
68910;SDS011;55953;51.650;-0.522;2024-01-16T03:43:40;8.30;;;3.70;;
68910;SDS011;55953;51.650;-0.522;2024-01-16T03:46:10;9.40;;;4.40;;
68910;SDS011;55953;51.650;-0.522;2024-01-16T03:48:39;7.40;;;3.90;;
68910;SDS011;55953;51.650;-0.522;2024-01-16T03:51:07;6.50;;;3.50;;
68910;SDS011;55953;51.650;-0.522;2024-01-16T03:53:35;8.60;;;3.90;;
68910;SDS011;55953;51.650;-0.522;2024-01-16T03:56:03;7.40;;;4.00;;
68910;SDS011;55953;51.650;-0.522;2024-01-16T03:58:31;7.00;;;3.80;;
68910;SDS011;55953;51.650;-0.522;2024-01-16T04:00:59;10.40;;;4.30;;
68910;SDS011;55953;51.650;-0.522;2024-01-16T04:03:27;7.20;;;4.30;;
68910;SDS011;55953;51.650;-0.522;2024-01-16T04:05:55;8.40;;;4.30;;
68910;SDS011;55953;51.650;-0.522;2024-01-16T04:08:23;9.60;;;4.10;;
68910;SDS011;55953;51.650;-0.522;2024-01-16T04:10:51;7.30;;;4.10;;
68910;SDS011;55953;51.650;-0.522;2024-01-16T04:13:19;9.00;;;4.00;;
68910;SDS011;55953;51.650;-0.522;2024-01-16T04:15:46;11.80;;;4.00;;
68910;SDS011;55953;51.650;-0.522;2024-01-16T04:18:14;10.70;;;3.90;;
68910;SDS011;55953;51.650;-0.522;2024-01-16T04:20:42;9.00;;;4.20;;
68910;SDS011;55953;51.650;-0.522;2024-01-16T04:23:10;6.90;;;4.00;;
68910;SDS011;55953;51.650;-0.522;2024-01-16T04:25:39;6.90;;;3.80;;
68910;SDS011;55953;51.650;-0.522;2024-01-16T04:28:07;8.80;;;4.10;;
68910;SDS011;55953;51.650;-0.522;2024-01-16T04:30:35;11.30;;;4.00;;
68910;SDS011;55953;51.650;-0.522;2024-01-16T04:33:03;9.00;;;4.60;;
68910;SDS011;55953;51.650;-0.522;2024-01-16T04:35:31;6.60;;;3.80;;
68910;SDS011;55953;51.650;-0.522;2024-01-16T04:37:59;11.00;;;4.50;;
68910;SDS011;55953;51.650;-0.522;2024-01-16T04:40:27;9.30;;;4.90;;
68910;SDS011;55953;51.650;-0.522;2024-01-16T04:42:55;8.70;;;4.20;;
68910;SDS011;55953;51.650;-0.522;2024-01-16T04:45:23;9.30;;;4.40;;
68910;SDS011;55953;51.650;-0.522;2024-01-16T04:47:50;7.80;;;4.40;;
68910;SDS011;55953;51.650;-0.522;2024-01-16T04:50:18;7.60;;;4.10;;
68910;SDS011;55953;51.650;-0.522;2024-01-16T04:52:46;7.10;;;4.00;;
68910;SDS011;55953;51.650;-0.522;2024-01-16T04:55:17;7.30;;;4.10;;
68910;SDS011;55953;51.650;-0.522;2024-01-16T04:57:45;9.50;;;4.30;;
68910;SDS011;55953;51.650;-0.522;2024-01-16T05:00:13;10.60;;;4.90;;
68910;SDS011;55953;51.650;-0.522;2024-01-16T05:02:41;10.00;;;4.40;;
68910;SDS011;55953;51.650;-0.522;2024-01-16T05:05:09;10.10;;;4.60;;
68910;SDS011;55953;51.650;-0.522;2024-01-16T05:07:37;8.90;;;4.30;;
68910;SDS011;55953;51.650;-0.522;2024-01-16T05:10:06;9.20;;;4.00;;
68910;SDS011;55953;51.650;-0.522;2024-01-16T05:12:34;9.20;;;4.20;;
68910;SDS011;55953;51.650;-0.522;2024-01-16T05:15:03;8.20;;;4.10;;
68910;SDS011;55953;51.650;-0.522;2024-01-16T05:17:31;9.30;;;4.40;;
68910;SDS011;55953;51.650;-0.522;2024-01-16T05:20:00;8.20;;;3.80;;
68910;SDS011;55953;51.650;-0.522;2024-01-16T05:22:31;7.20;;;4.00;;
68910;SDS011;55953;51.650;-0.522;2024-01-16T05:24:59;8.40;;;4.00;;
68910;SDS011;55953;51.650;-0.522;2024-01-16T05:27:28;8.90;;;4.40;;
68910;SDS011;55953;51.650;-0.522;2024-01-16T05:29:56;9.10;;;3.80;;
68910;SDS011;55953;51.650;-0.522;2024-01-16T05:32:24;8.10;;;4.50;;
68910;SDS011;55953;51.650;-0.522;2024-01-16T05:34:52;8.10;;;4.10;;
68910;SDS011;55953;51.650;-0.522;2024-01-16T05:37:20;7.30;;;4.10;;
68910;SDS011;55953;51.650;-0.522;2024-01-16T05:39:48;9.00;;;3.90;;
68910;SDS011;55953;51.650;-0.522;2024-01-16T05:42:16;6.00;;;3.60;;
68910;SDS011;55953;51.650;-0.522;2024-01-16T05:44:45;7.30;;;4.30;;
68910;SDS011;55953;51.650;-0.522;2024-01-16T05:47:13;8.20;;;4.20;;
68910;SDS011;55953;51.650;-0.522;2024-01-16T05:49:40;8.20;;;4.30;;
68910;SDS011;55953;51.650;-0.522;2024-01-16T05:52:10;7.20;;;4.00;;
68910;SDS011;55953;51.650;-0.522;2024-01-16T05:54:38;9.20;;;4.60;;
68910;SDS011;55953;51.650;-0.522;2024-01-16T05:57:06;10.10;;;4.20;;
68910;SDS011;55953;51.650;-0.522;2024-01-16T05:59:34;7.50;;;4.30;;
68910;SDS011;55953;51.650;-0.522;2024-01-16T06:02:02;8.60;;;4.20;;
68910;SDS011;55953;51.650;-0.522;2024-01-16T06:04:30;9.40;;;4.10;;
68910;SDS011;55953;51.650;-0.522;2024-01-16T06:06:58;9.40;;;4.10;;
68910;SDS011;55953;51.650;-0.522;2024-01-16T06:09:26;6.80;;;4.10;;
68910;SDS011;55953;51.650;-0.522;2024-01-16T06:11:53;8.90;;;4.20;;
68910;SDS011;55953;51.650;-0.522;2024-01-16T06:14:21;8.60;;;4.60;;
68910;SDS011;55953;51.650;-0.522;2024-01-16T06:16:50;10.20;;;4.50;;
68910;SDS011;55953;51.650;-0.522;2024-01-16T06:19:18;11.70;;;5.10;;
68910;SDS011;55953;51.650;-0.522;2024-01-16T06:21:46;6.30;;;3.90;;
68910;SDS011;55953;51.650;-0.522;2024-01-16T06:24:14;6.70;;;4.00;;
68910;SDS011;55953;51.650;-0.522;2024-01-16T06:26:42;7.80;;;4.10;;
68910;SDS011;55953;51.650;-0.522;2024-01-16T06:29:10;7.60;;;3.80;;
68910;SDS011;55953;51.650;-0.522;2024-01-16T06:31:51;9.20;;;4.70;;
68910;SDS011;55953;51.650;-0.522;2024-01-16T06:34:19;7.40;;;4.50;;
68910;SDS011;55953;51.650;-0.522;2024-01-16T06:36:48;10.40;;;4.30;;
68910;SDS011;55953;51.650;-0.522;2024-01-16T06:39:16;10.80;;;4.10;;
68910;SDS011;55953;51.650;-0.522;2024-01-16T06:41:43;10.20;;;4.40;;
68910;SDS011;55953;51.650;-0.522;2024-01-16T06:44:11;9.20;;;4.40;;
68910;SDS011;55953;51.650;-0.522;2024-01-16T06:46:39;9.90;;;5.10;;
68910;SDS011;55953;51.650;-0.522;2024-01-16T06:49:07;8.90;;;4.60;;
68910;SDS011;55953;51.650;-0.522;2024-01-16T06:51:35;8.00;;;4.10;;
68910;SDS011;55953;51.650;-0.522;2024-01-16T06:54:03;10.20;;;4.50;;
68910;SDS011;55953;51.650;-0.522;2024-01-16T06:56:31;10.90;;;4.60;;
68910;SDS011;55953;51.650;-0.522;2024-01-16T06:58:59;9.70;;;5.20;;
68910;SDS011;55953;51.650;-0.522;2024-01-16T07:01:27;6.70;;;4.10;;
68910;SDS011;55953;51.650;-0.522;2024-01-16T07:03:55;9.40;;;4.80;;
68910;SDS011;55953;51.650;-0.522;2024-01-16T07:06:23;8.50;;;4.80;;
68910;SDS011;55953;51.650;-0.522;2024-01-16T07:08:51;9.50;;;4.80;;
68910;SDS011;55953;51.650;-0.522;2024-01-16T07:11:20;9.20;;;4.70;;
68910;SDS011;55953;51.650;-0.522;2024-01-16T07:13:52;11.50;;;4.60;;
68910;SDS011;55953;51.650;-0.522;2024-01-16T07:16:20;9.80;;;5.10;;
68910;SDS011;55953;51.650;-0.522;2024-01-16T07:18:48;9.40;;;5.50;;
68910;SDS011;55953;51.650;-0.522;2024-01-16T07:21:17;10.50;;;5.10;;
68910;SDS011;55953;51.650;-0.522;2024-01-16T07:23:47;10.00;;;4.70;;
68910;SDS011;55953;51.650;-0.522;2024-01-16T07:26:16;8.80;;;5.10;;
68910;SDS011;55953;51.650;-0.522;2024-01-16T07:28:44;9.70;;;4.50;;
68910;SDS011;55953;51.650;-0.522;2024-01-16T07:31:14;8.80;;;5.50;;
68910;SDS011;55953;51.650;-0.522;2024-01-16T07:33:44;12.50;;;5.80;;
68910;SDS011;55953;51.650;-0.522;2024-01-16T07:36:12;11.90;;;5.30;;
68910;SDS011;55953;51.650;-0.522;2024-01-16T07:38:41;8.70;;;5.10;;
68910;SDS011;55953;51.650;-0.522;2024-01-16T07:41:09;10.00;;;5.50;;
68910;SDS011;55953;51.650;-0.522;2024-01-16T07:43:37;13.10;;;5.10;;
68910;SDS011;55953;51.650;-0.522;2024-01-16T07:46:05;14.00;;;5.10;;
68910;SDS011;55953;51.650;-0.522;2024-01-16T07:48:33;6.90;;;4.60;;
68910;SDS011;55953;51.650;-0.522;2024-01-16T07:51:00;9.90;;;5.30;;
68910;SDS011;55953;51.650;-0.522;2024-01-16T07:53:29;9.80;;;5.00;;
68910;SDS011;55953;51.650;-0.522;2024-01-16T07:55:56;9.70;;;5.20;;
68910;SDS011;55953;51.650;-0.522;2024-01-16T07:58:25;9.40;;;4.90;;
68910;SDS011;55953;51.650;-0.522;2024-01-16T08:00:53;9.10;;;4.60;;
68910;SDS011;55953;51.650;-0.522;2024-01-16T08:03:21;11.10;;;5.60;;
68910;SDS011;55953;51.650;-0.522;2024-01-16T08:05:49;11.00;;;5.70;;
68910;SDS011;55953;51.650;-0.522;2024-01-16T08:08:18;10.90;;;5.10;;
68910;SDS011;55953;51.650;-0.522;2024-01-16T08:10:46;11.80;;;5.90;;
68910;SDS011;55953;51.650;-0.522;2024-01-16T08:13:14;14.20;;;5.80;;
68910;SDS011;55953;51.650;-0.522;2024-01-16T08:15:42;12.50;;;6.70;;
68910;SDS011;55953;51.650;-0.522;2024-01-16T08:18:10;12.10;;;6.00;;
68910;SDS011;55953;51.650;-0.522;2024-01-16T08:20:38;11.20;;;5.80;;
68910;SDS011;55953;51.650;-0.522;2024-01-16T08:23:06;12.30;;;5.80;;
68910;SDS011;55953;51.650;-0.522;2024-01-16T08:25:34;12.30;;;5.90;;
68910;SDS011;55953;51.650;-0.522;2024-01-16T08:28:02;11.30;;;5.60;;
68910;SDS011;55953;51.650;-0.522;2024-01-16T08:30:30;12.60;;;6.00;;
68910;SDS011;55953;51.650;-0.522;2024-01-16T08:32:58;12.80;;;5.50;;
68910;SDS011;55953;51.650;-0.522;2024-01-16T08:35:26;11.90;;;5.20;;
68910;SDS011;55953;51.650;-0.522;2024-01-16T08:37:54;10.70;;;5.90;;
68910;SDS011;55953;51.650;-0.522;2024-01-16T08:40:22;11.70;;;5.70;;
68910;SDS011;55953;51.650;-0.522;2024-01-16T08:42:50;12.60;;;5.40;;
68910;SDS011;55953;51.650;-0.522;2024-01-16T08:45:24;9.30;;;5.10;;
68910;SDS011;55953;51.650;-0.522;2024-01-16T08:47:54;10.40;;;5.00;;
68910;SDS011;55953;51.650;-0.522;2024-01-16T08:50:22;14.70;;;6.50;;
68910;SDS011;55953;51.650;-0.522;2024-01-16T08:52:50;12.00;;;5.30;;
68910;SDS011;55953;51.650;-0.522;2024-01-16T08:55:19;11.70;;;5.40;;
68910;SDS011;55953;51.650;-0.522;2024-01-16T08:57:47;11.00;;;5.40;;
68910;SDS011;55953;51.650;-0.522;2024-01-16T09:00:15;13.70;;;5.50;;
68910;SDS011;55953;51.650;-0.522;2024-01-16T09:02:43;11.80;;;5.70;;
68910;SDS011;55953;51.650;-0.522;2024-01-16T09:05:11;11.60;;;5.70;;
68910;SDS011;55953;51.650;-0.522;2024-01-16T09:07:41;12.10;;;6.30;;
68910;SDS011;55953;51.650;-0.522;2024-01-16T09:10:09;12.90;;;5.90;;
68910;SDS011;55953;51.650;-0.522;2024-01-16T09:12:37;11.10;;;6.20;;
68910;SDS011;55953;51.650;-0.522;2024-01-16T09:15:06;10.00;;;5.70;;
68910;SDS011;55953;51.650;-0.522;2024-01-16T09:17:34;10.50;;;6.00;;
68910;SDS011;55953;51.650;-0.522;2024-01-16T09:20:03;11.50;;;6.20;;
68910;SDS011;55953;51.650;-0.522;2024-01-16T09:22:31;12.40;;;6.30;;
68910;SDS011;55953;51.650;-0.522;2024-01-16T09:24:59;10.00;;;5.70;;
68910;SDS011;55953;51.650;-0.522;2024-01-16T09:27:27;11.60;;;5.50;;
68910;SDS011;55953;51.650;-0.522;2024-01-16T09:29:55;13.40;;;5.20;;
68910;SDS011;55953;51.650;-0.522;2024-01-16T09:32:23;9.20;;;5.50;;
68910;SDS011;55953;51.650;-0.522;2024-01-16T09:34:51;12.00;;;6.10;;
68910;SDS011;55953;51.650;-0.522;2024-01-16T09:37:19;11.90;;;5.40;;
68910;SDS011;55953;51.650;-0.522;2024-01-16T09:39:47;9.70;;;5.30;;
68910;SDS011;55953;51.650;-0.522;2024-01-16T09:42:15;11.90;;;5.60;;
68910;SDS011;55953;51.650;-0.522;2024-01-16T09:44:43;8.30;;;5.00;;
68910;SDS011;55953;51.650;-0.522;2024-01-16T09:47:11;11.60;;;6.00;;
68910;SDS011;55953;51.650;-0.522;2024-01-16T09:49:42;11.80;;;5.90;;
68910;SDS011;55953;51.650;-0.522;2024-01-16T09:52:10;12.50;;;6.40;;
68910;SDS011;55953;51.650;-0.522;2024-01-16T09:54:38;13.00;;;7.30;;
68910;SDS011;55953;51.650;-0.522;2024-01-16T09:57:07;11.40;;;7.20;;
68910;SDS011;55953;51.650;-0.522;2024-01-16T09:59:36;10.40;;;6.00;;
68910;SDS011;55953;51.650;-0.522;2024-01-16T10:04:42;11.80;;;5.80;;
68910;SDS011;55953;51.650;-0.522;2024-01-16T10:07:12;9.70;;;5.50;;
68910;SDS011;55953;51.650;-0.522;2024-01-16T10:09:43;9.80;;;5.80;;
68910;SDS011;55953;51.650;-0.522;2024-01-16T10:12:11;10.20;;;5.50;;
68910;SDS011;55953;51.650;-0.522;2024-01-16T10:14:39;12.40;;;5.20;;
68910;SDS011;55953;51.650;-0.522;2024-01-16T10:17:11;11.20;;;5.30;;
68910;SDS011;55953;51.650;-0.522;2024-01-16T10:19:53;8.50;;;4.80;;
68910;SDS011;55953;51.650;-0.522;2024-01-16T10:22:24;10.00;;;5.30;;
68910;SDS011;55953;51.650;-0.522;2024-01-16T10:25:08;10.70;;;5.10;;
68910;SDS011;55953;51.650;-0.522;2024-01-16T10:27:39;12.00;;;5.20;;
68910;SDS011;55953;51.650;-0.522;2024-01-16T10:30:08;12.00;;;5.40;;
68910;SDS011;55953;51.650;-0.522;2024-01-16T10:32:39;13.80;;;5.10;;
68910;SDS011;55953;51.650;-0.522;2024-01-16T10:35:12;10.50;;;5.50;;
68910;SDS011;55953;51.650;-0.522;2024-01-16T10:37:49;9.40;;;5.50;;
68910;SDS011;55953;51.650;-0.522;2024-01-16T10:40:23;8.90;;;5.40;;
68910;SDS011;55953;51.650;-0.522;2024-01-16T10:43:03;9.70;;;5.70;;
68910;SDS011;55953;51.650;-0.522;2024-01-16T10:45:33;12.20;;;5.30;;
68910;SDS011;55953;51.650;-0.522;2024-01-16T10:50:36;11.10;;;5.60;;
68910;SDS011;55953;51.650;-0.522;2024-01-16T10:53:07;10.40;;;5.20;;
68910;SDS011;55953;51.650;-0.522;2024-01-16T10:55:50;9.20;;;5.50;;
68910;SDS011;55953;51.650;-0.522;2024-01-16T10:58:22;9.00;;;4.80;;
68910;SDS011;55953;51.650;-0.522;2024-01-16T11:00:53;8.20;;;5.30;;
68910;SDS011;55953;51.650;-0.522;2024-01-16T11:03:49;9.90;;;4.50;;
68910;SDS011;55953;51.650;-0.522;2024-01-16T11:06:18;10.00;;;5.50;;
68910;SDS011;55953;51.650;-0.522;2024-01-16T11:08:48;11.00;;;5.30;;
68910;SDS011;55953;51.650;-0.522;2024-01-16T11:11:17;6.30;;;4.40;;
68910;SDS011;55953;51.650;-0.522;2024-01-16T11:13:46;9.30;;;4.50;;
68910;SDS011;55953;51.650;-0.522;2024-01-16T11:16:14;12.10;;;4.50;;
68910;SDS011;55953;51.650;-0.522;2024-01-16T11:18:43;7.60;;;4.40;;
68910;SDS011;55953;51.650;-0.522;2024-01-16T11:21:13;10.10;;;4.50;;
68910;SDS011;55953;51.650;-0.522;2024-01-16T11:23:45;11.00;;;4.30;;
68910;SDS011;55953;51.650;-0.522;2024-01-16T11:26:32;6.00;;;3.70;;
68910;SDS011;55953;51.650;-0.522;2024-01-16T11:31:57;7.90;;;4.00;;
68910;SDS011;55953;51.650;-0.522;2024-01-16T11:37:31;10.60;;;4.10;;
68910;SDS011;55953;51.650;-0.522;2024-01-16T11:42:49;9.20;;;4.20;;
68910;SDS011;55953;51.650;-0.522;2024-01-16T11:48:11;9.10;;;4.30;;
68910;SDS011;55953;51.650;-0.522;2024-01-16T11:50:41;8.10;;;3.80;;
68910;SDS011;55953;51.650;-0.522;2024-01-16T11:53:10;8.70;;;4.10;;
68910;SDS011;55953;51.650;-0.522;2024-01-16T12:01:35;12.20;;;4.50;;
68910;SDS011;55953;51.650;-0.522;2024-01-16T12:04:07;8.90;;;5.00;;
68910;SDS011;55953;51.650;-0.522;2024-01-16T12:06:37;9.90;;;5.20;;
68910;SDS011;55953;51.650;-0.522;2024-01-16T12:09:16;11.70;;;4.90;;
68910;SDS011;55953;51.650;-0.522;2024-01-16T12:11:56;11.30;;;5.50;;
68910;SDS011;55953;51.650;-0.522;2024-01-16T12:14:29;11.30;;;5.30;;
68910;SDS011;55953;51.650;-0.522;2024-01-16T12:17:08;11.30;;;5.00;;
68910;SDS011;55953;51.650;-0.522;2024-01-16T12:19:38;9.70;;;5.30;;
68910;SDS011;55953;51.650;-0.522;2024-01-16T12:22:15;11.20;;;5.60;;
68910;SDS011;55953;51.650;-0.522;2024-01-16T12:24:49;13.00;;;5.40;;
68910;SDS011;55953;51.650;-0.522;2024-01-16T12:27:17;11.70;;;5.70;;
68910;SDS011;55953;51.650;-0.522;2024-01-16T12:29:45;12.50;;;6.30;;
68910;SDS011;55953;51.650;-0.522;2024-01-16T12:32:13;11.40;;;6.10;;
68910;SDS011;55953;51.650;-0.522;2024-01-16T12:34:49;11.60;;;6.70;;
68910;SDS011;55953;51.650;-0.522;2024-01-16T12:37:17;15.00;;;7.30;;
68910;SDS011;55953;51.650;-0.522;2024-01-16T12:39:45;15.10;;;8.10;;
68910;SDS011;55953;51.650;-0.522;2024-01-16T12:42:13;18.00;;;10.40;;
68910;SDS011;55953;51.650;-0.522;2024-01-16T12:44:42;16.40;;;8.50;;
68910;SDS011;55953;51.650;-0.522;2024-01-16T12:47:10;17.50;;;9.60;;
68910;SDS011;55953;51.650;-0.522;2024-01-16T12:49:42;19.70;;;10.90;;
68910;SDS011;55953;51.650;-0.522;2024-01-16T12:52:22;18.50;;;10.10;;
68910;SDS011;55953;51.650;-0.522;2024-01-16T12:55:00;15.70;;;10.20;;
68910;SDS011;55953;51.650;-0.522;2024-01-16T12:57:35;13.20;;;10.00;;
68910;SDS011;55953;51.650;-0.522;2024-01-16T13:00:21;17.60;;;8.70;;
68910;SDS011;55953;51.650;-0.522;2024-01-16T13:02:53;11.30;;;6.50;;
68910;SDS011;55953;51.650;-0.522;2024-01-16T13:05:23;12.30;;;6.20;;
68910;SDS011;55953;51.650;-0.522;2024-01-16T13:08:00;11.50;;;6.30;;
68910;SDS011;55953;51.650;-0.522;2024-01-16T13:10:31;12.30;;;6.50;;
68910;SDS011;55953;51.650;-0.522;2024-01-16T13:13:16;13.50;;;6.70;;
68910;SDS011;55953;51.650;-0.522;2024-01-16T13:15:45;12.30;;;6.10;;
68910;SDS011;55953;51.650;-0.522;2024-01-16T13:18:24;9.30;;;5.60;;
68910;SDS011;55953;51.650;-0.522;2024-01-16T13:20:55;10.10;;;5.80;;
68910;SDS011;55953;51.650;-0.522;2024-01-16T13:23:25;12.60;;;6.00;;
68910;SDS011;55953;51.650;-0.522;2024-01-16T13:25:55;13.00;;;5.60;;
68910;SDS011;55953;51.650;-0.522;2024-01-16T13:28:25;11.50;;;5.70;;
68910;SDS011;55953;51.650;-0.522;2024-01-16T13:30:54;10.90;;;5.70;;
68910;SDS011;55953;51.650;-0.522;2024-01-16T13:33:23;10.00;;;5.70;;
68910;SDS011;55953;51.650;-0.522;2024-01-16T13:35:55;8.50;;;4.40;;
68910;SDS011;55953;51.650;-0.522;2024-01-16T13:38:23;9.90;;;4.90;;
68910;SDS011;55953;51.650;-0.522;2024-01-16T13:40:51;7.90;;;4.30;;
68910;SDS011;55953;51.650;-0.522;2024-01-16T13:43:19;12.80;;;4.70;;
68910;SDS011;55953;51.650;-0.522;2024-01-16T13:45:49;8.20;;;3.40;;
68910;SDS011;55953;51.650;-0.522;2024-01-16T13:48:17;9.30;;;3.90;;
68910;SDS011;55953;51.650;-0.522;2024-01-16T13:50:45;9.70;;;4.90;;
68910;SDS011;55953;51.650;-0.522;2024-01-16T13:53:13;14.20;;;4.50;;
68910;SDS011;55953;51.650;-0.522;2024-01-16T13:55:42;6.90;;;4.00;;
68910;SDS011;55953;51.650;-0.522;2024-01-16T13:58:10;7.80;;;4.40;;
68910;SDS011;55953;51.650;-0.522;2024-01-16T14:00:38;8.10;;;3.60;;
68910;SDS011;55953;51.650;-0.522;2024-01-16T14:03:06;9.10;;;4.00;;
68910;SDS011;55953;51.650;-0.522;2024-01-16T14:05:35;8.90;;;3.20;;
68910;SDS011;55953;51.650;-0.522;2024-01-16T14:08:04;5.90;;;3.30;;
68910;SDS011;55953;51.650;-0.522;2024-01-16T14:10:32;9.80;;;3.80;;
68910;SDS011;55953;51.650;-0.522;2024-01-16T14:13:00;8.80;;;3.80;;
68910;SDS011;55953;51.650;-0.522;2024-01-16T14:15:28;7.80;;;3.90;;
68910;SDS011;55953;51.650;-0.522;2024-01-16T14:17:56;5.80;;;3.30;;
68910;SDS011;55953;51.650;-0.522;2024-01-16T14:20:25;8.50;;;3.40;;
68910;SDS011;55953;51.650;-0.522;2024-01-16T14:22:56;6.50;;;2.90;;
68910;SDS011;55953;51.650;-0.522;2024-01-16T14:25:25;6.70;;;3.40;;
68910;SDS011;55953;51.650;-0.522;2024-01-16T14:28:01;6.60;;;3.00;;
68910;SDS011;55953;51.650;-0.522;2024-01-16T14:30:32;7.30;;;2.80;;
68910;SDS011;55953;51.650;-0.522;2024-01-16T14:33:02;9.90;;;3.80;;
68910;SDS011;55953;51.650;-0.522;2024-01-16T14:35:30;7.90;;;3.90;;
68910;SDS011;55953;51.650;-0.522;2024-01-16T14:37:58;9.10;;;3.70;;
68910;SDS011;55953;51.650;-0.522;2024-01-16T14:40:26;7.60;;;3.80;;
68910;SDS011;55953;51.650;-0.522;2024-01-16T14:42:55;11.40;;;4.20;;
68910;SDS011;55953;51.650;-0.522;2024-01-16T14:45:27;10.60;;;3.70;;
68910;SDS011;55953;51.650;-0.522;2024-01-16T14:47:55;8.60;;;3.90;;
68910;SDS011;55953;51.650;-0.522;2024-01-16T14:50:23;7.40;;;4.30;;
68910;SDS011;55953;51.650;-0.522;2024-01-16T14:52:52;8.30;;;3.60;;
68910;SDS011;55953;51.650;-0.522;2024-01-16T14:55:21;10.30;;;4.40;;
68910;SDS011;55953;51.650;-0.522;2024-01-16T14:57:50;10.70;;;4.20;;
68910;SDS011;55953;51.650;-0.522;2024-01-16T15:00:27;7.40;;;3.70;;
68910;SDS011;55953;51.650;-0.522;2024-01-16T15:02:55;11.40;;;3.80;;
68910;SDS011;55953;51.650;-0.522;2024-01-16T15:05:25;8.00;;;3.60;;